Time;durP1;ratioP1;P1;durP2;ratioP2;P2;SDS_P1;SDS_P2;PMS_P1;PMS_P2;Temp;Humidity;BMP_temperature;BMP_pressure;BME280_temperature;BME280_humidity;BME280_pressure;Samples;Min_cycle;Max_cycle;Signal;HPM_P1;HPM_P2
2023/04/10 00:01:38;;;;;;;9.83;8.80;;;;;;;;;;5014105;28;20522;-64
2023/04/10 00:04:04;;;;;;;12.07;9.60;;;;;;;;;;5014030;28;20190;-63
2023/04/10 00:06:31;;;;;;;10.07;9.07;;;;;;;;;;5013612;28;20210;-63
2023/04/10 00:08:57;;;;;;;12.60;8.33;;;;;;;;;;5014331;28;20203;-64
2023/04/10 00:11:24;;;;;;;12.67;9.03;;;;;;;;;;5013946;28;20179;-63
2023/04/10 00:13:50;;;;;;;10.13;9.03;;;;;;;;;;5014275;28;20519;-63
2023/04/10 00:16:16;;;;;;;9.67;8.53;;;;;;;;;;5013554;28;20210;-63
2023/04/10 00:18:42;;;;;;;11.43;9.57;;;;;;;;;;5013832;28;20186;-63
2023/04/10 00:21:08;;;;;;;10.27;9.20;;;;;;;;;;5014072;28;20179;-63
2023/04/10 00:23:34;;;;;;;10.83;9.17;;;;;;;;;;5013837;28;20203;-63
2023/04/10 00:26:00;;;;;;;12.37;9.50;;;;;;;;;;5013633;28;20227;-63
2023/04/10 00:28:26;;;;;;;10.60;9.43;;;;;;;;;;5014069;28;20176;-63
2023/04/10 00:30:52;;;;;;;10.23;8.60;;;;;;;;;;5014074;28;20175;-64
2023/04/10 00:33:18;;;;;;;11.23;8.90;;;;;;;;;;4995768;28;20535;-65
2023/04/10 00:35:45;;;;;;;11.57;9.20;;;;;;;;;;5013219;28;20203;-63
2023/04/10 00:38:11;;;;;;;11.17;9.17;;;;;;;;;;5028527;22;20227;-69
2023/04/10 00:40:37;;;;;;;10.37;8.73;;;;;;;;;;5013213;28;20176;-70
2023/04/10 00:43:03;;;;;;;9.60;8.63;;;;;;;;;;4996661;28;20183;-69
2023/04/10 00:45:29;;;;;;;10.33;8.93;;;;;;;;;;5017872;28;20172;-68
2023/04/10 00:47:55;;;;;;;12.00;9.43;;;;;;;;;;5017055;28;20199;-69
2023/04/10 00:50:21;;;;;;;11.57;9.23;;;;;;;;;;5017166;28;20186;-69
2023/04/10 00:52:48;;;;;;;10.53;9.03;;;;;;;;;;4999478;28;20226;-69
2023/04/10 00:55:14;;;;;;;9.30;8.40;;;;;;;;;;4999383;28;20745;-68
2023/04/10 00:57:44;;;;;;;9.63;8.63;;;;;;;;;;4999316;28;20203;-69
2023/04/10 01:00:10;;;;;;;10.30;9.30;;;;;;;;;;4999425;28;20560;-68
2023/04/10 01:02:36;;;;;;;9.50;8.50;;;;;;;;;;5016993;28;20266;-68
2023/04/10 01:05:02;;;;;;;9.77;8.80;;;;;;;;;;5017256;28;20230;-68
2023/04/10 01:07:40;;;;;;;9.60;8.60;;;;;;;;;;5016733;28;20589;-68
2023/04/10 01:10:14;;;;;;;9.53;8.53;;;;;;;;;;5016824;28;20203;-68
2023/04/10 01:12:55;;;;;;;11.33;9.23;;;;;;;;;;4999190;28;20167;-71
2023/04/10 01:15:26;;;;;;;11.47;9.57;;;;;;;;;;5016674;28;20700;-68
2023/04/10 01:18:04;;;;;;;10.63;9.17;;;;;;;;;;4999071;28;20208;-68
2023/04/10 01:20:36;;;;;;;14.30;9.97;;;;;;;;;;4998955;28;20179;-68
2023/04/10 01:23:20;;;;;;;12.43;9.77;;;;;;;;;;5016494;28;20172;-68
2023/04/10 01:26:00;;;;;;;14.00;10.93;;;;;;;;;;4998924;28;20207;-68
2023/04/10 01:28:45;;;;;;;12.13;10.10;;;;;;;;;;4998902;28;20208;-68
2023/04/10 01:31:14;;;;;;;12.87;9.93;;;;;;;;;;4999435;28;20566;-68
2023/04/10 01:33:44;;;;;;;14.47;10.43;;;;;;;;;;4999280;28;20180;-68
2023/04/10 01:36:11;;;;;;;13.20;9.87;;;;;;;;;;4998960;28;20697;-69
2023/04/10 01:38:38;;;;;;;19.07;11.67;;;;;;;;;;5016188;28;20196;-69
2023/04/10 01:41:05;;;;;;;20.57;11.70;;;;;;;;;;4998596;28;20233;-69
2023/04/10 01:43:33;;;;;;;14.07;11.00;;;;;;;;;;4998540;28;20199;-68
2023/04/10 01:45:59;;;;;;;15.50;11.00;;;;;;;;;;4998585;28;20206;-69
2023/04/10 01:48:25;;;;;;;15.77;10.93;;;;;;;;;;5016060;28;20576;-68
2023/04/10 01:50:52;;;;;;;14.57;10.80;;;;;;;;;;4998469;28;20672;-68
2023/04/10 01:53:18;;;;;;;13.33;10.37;;;;;;;;;;4998272;28;20187;-68
2023/04/10 01:55:44;;;;;;;12.40;10.23;;;;;;;;;;4997932;28;20208;-68
2023/04/10 01:58:10;;;;;;;10.27;9.17;;;;;;;;;;4998239;28;20576;-68
2023/04/10 02:00:38;;;;;;;13.43;9.37;;;;;;;;;;5016083;28;20267;-68
2023/04/10 02:03:03;;;;;;;10.20;9.20;;;;;;;;;;4998411;28;20563;-68
2023/04/10 02:05:31;;;;;;;10.63;9.00;;;;;;;;;;5015938;28;20713;-68
2023/04/10 02:07:57;;;;;;;11.30;9.97;;;;;;;;;;4998255;28;20573;-69
2023/04/10 02:10:32;;;;;;;11.33;9.23;;;;;;;;;;4998164;28;20198;-68
2023/04/10 02:13:05;;;;;;;12.60;10.53;;;;;;;;;;4998238;28;20194;-68
2023/04/10 02:15:31;;;;;;;11.60;10.40;;;;;;;;;;4997910;28;20204;-69
2023/04/10 02:17:58;;;;;;;11.87;9.90;;;;;;;;;;5015688;28;20200;-68
2023/04/10 02:20:25;;;;;;;13.77;9.93;;;;;;;;;;4997941;28;20184;-68
2023/04/10 02:22:52;;;;;;;14.97;10.90;;;;;;;;;;4998143;28;20179;-69
2023/04/10 02:25:18;;;;;;;11.23;9.57;;;;;;;;;;5016273;28;20180;-68
2023/04/10 02:27:44;;;;;;;12.43;10.50;;;;;;;;;;5015427;28;20203;-68
2023/04/10 02:30:10;;;;;;;11.80;10.10;;;;;;;;;;5015504;28;20179;-70
2023/04/10 02:32:36;;;;;;;10.73;9.63;;;;;;;;;;5015738;28;20282;-68
2023/04/10 02:35:02;;;;;;;11.43;9.53;;;;;;;;;;4997830;28;20179;-69
2023/04/10 02:37:29;;;;;;;10.40;9.40;;;;;;;;;;4997817;28;20713;-68
2023/04/10 02:39:55;;;;;;;10.40;9.13;;;;;;;;;;4998500;28;20563;-68
2023/04/10 02:42:21;;;;;;;11.97;9.47;;;;;;;;;;5016009;28;20248;-69
2023/04/10 02:44:47;;;;;;;10.57;9.47;;;;;;;;;;5015631;28;20186;-68
2023/04/10 02:47:14;;;;;;;10.87;9.70;;;;;;;;;;4997723;28;20238;-68
2023/04/10 02:49:40;;;;;;;11.03;9.77;;;;;;;;;;4997661;28;20184;-68
2023/04/10 02:52:07;;;;;;;10.67;9.60;;;;;;;;;;4997421;28;20253;-68
2023/04/10 02:54:33;;;;;;;12.57;10.40;;;;;;;;;;4997504;28;20242;-69
2023/04/10 02:57:00;;;;;;;12.30;9.67;;;;;;;;;;4997261;28;20215;-68
2023/04/10 02:59:26;;;;;;;10.67;9.57;;;;;;;;;;4997443;28;20274;-68
2023/04/10 03:01:52;;;;;;;10.97;9.80;;;;;;;;;;4997387;28;20266;-68
2023/04/10 03:04:18;;;;;;;13.93;10.23;;;;;;;;;;4997357;28;20271;-68
2023/04/10 03:06:45;;;;;;;12.53;9.63;;;;;;;;;;5014034;28;20543;-68
2023/04/10 03:09:11;;;;;;;11.80;10.10;;;;;;;;;;4997144;28;20183;-68
2023/04/10 03:11:37;;;;;;;14.37;10.37;;;;;;;;;;5014789;28;20245;-68
2023/04/10 03:14:03;;;;;;;12.73;10.17;;;;;;;;;;4997092;28;20188;-68
2023/04/10 03:16:30;;;;;;;11.03;9.93;;;;;;;;;;5014650;28;20219;-68
2023/04/10 03:18:56;;;;;;;13.27;10.63;;;;;;;;;;4997152;28;20179;-70
2023/04/10 03:21:22;;;;;;;11.63;10.43;;;;;;;;;;4996885;28;20646;-68
2023/04/10 03:23:48;;;;;;;10.40;9.40;;;;;;;;;;4996954;28;20278;-70
2023/04/10 03:26:14;;;;;;;10.97;9.83;;;;;;;;;;4996910;28;20223;-70
2023/04/10 03:28:40;;;;;;;11.70;10.50;;;;;;;;;;4997006;28;20692;-70
2023/04/10 03:31:06;;;;;;;14.40;12.33;;;;;;;;;;4996961;28;20187;-68
2023/04/10 03:33:32;;;;;;;12.87;11.47;;;;;;;;;;4996792;28;20184;-68
2023/04/10 03:35:58;;;;;;;19.47;14.87;;;;;;;;;;4996748;28;20301;-69
2023/04/10 03:38:24;;;;;;;16.53;14.37;;;;;;;;;;4996619;28;20208;-68
2023/04/10 03:40:50;;;;;;;17.97;14.30;;;;;;;;;;4996702;28;20567;-68
2023/04/10 03:43:16;;;;;;;18.90;12.27;;;;;;;;;;5014559;28;20171;-68
2023/04/10 03:45:42;;;;;;;13.77;11.80;;;;;;;;;;5014355;28;20183;-68
2023/04/10 03:48:08;;;;;;;12.97;11.57;;;;;;;;;;5014697;28;20279;-68
2023/04/10 03:50:34;;;;;;;14.23;11.13;;;;;;;;;;5015463;28;20184;-69
2023/04/10 03:53:00;;;;;;;14.87;11.13;;;;;;;;;;5014412;28;20543;-69
2023/04/10 03:55:26;;;;;;;13.53;10.43;;;;;;;;;;5014009;28;20735;-69
2023/04/10 03:57:52;;;;;;;11.60;10.23;;;;;;;;;;5014014;28;20246;-68
2023/04/10 04:00:20;;;;;;;11.73;10.53;;;;;;;;;;5014204;28;20183;-68
2023/04/10 04:02:46;;;;;;;13.50;11.33;;;;;;;;;;5014015;28;20673;-68
2023/04/10 04:05:12;;;;;;;13.20;9.80;;;;;;;;;;4996054;28;20172;-68
2023/04/10 04:07:37;;;;;;;13.23;10.93;;;;;;;;;;5014061;28;20620;-69
2023/04/10 04:10:04;;;;;;;16.03;11.97;;;;;;;;;;4996295;28;20179;-68
2023/04/10 04:12:30;;;;;;;13.93;12.00;;;;;;;;;;5013929;28;20557;-68
2023/04/10 04:14:56;;;;;;;14.70;12.23;;;;;;;;;;4996622;28;20184;-68
2023/04/10 04:17:21;;;;;;;15.70;12.47;;;;;;;;;;5014558;28;20220;-69
2023/04/10 04:19:47;;;;;;;15.17;11.97;;;;;;;;;;4997191;28;20190;-68
2023/04/10 04:22:14;;;;;;;12.63;11.33;;;;;;;;;;5014376;28;20172;-68
2023/04/10 04:24:40;;;;;;;14.57;10.87;;;;;;;;;;4996053;28;20262;-68
2023/04/10 04:27:07;;;;;;;13.43;11.70;;;;;;;;;;4996232;28;20583;-68
2023/04/10 04:29:33;;;;;;;13.23;11.00;;;;;;;;;;4995847;28;20186;-68
2023/04/10 04:31:59;;;;;;;11.87;10.63;;;;;;;;;;4995826;28;20175;-69
2023/04/10 04:34:26;;;;;;;13.03;11.00;;;;;;;;;;4995866;28;20180;-69
2023/04/10 04:36:52;;;;;;;13.20;10.17;;;;;;;;;;4995567;28;20276;-69
2023/04/10 04:39:18;;;;;;;12.80;11.33;;;;;;;;;;4995853;28;20654;-69
2023/04/10 04:41:44;;;;;;;13.27;10.37;;;;;;;;;;5013504;28;20175;-69
2023/04/10 04:44:10;;;;;;;11.83;10.43;;;;;;;;;;4995834;28;20669;-69
2023/04/10 04:46:35;;;;;;;12.00;10.70;;;;;;;;;;5013507;28;20196;-69
2023/04/10 04:49:02;;;;;;;13.57;11.00;;;;;;;;;;5013384;28;20749;-69
2023/04/10 04:51:28;;;;;;;16.03;10.60;;;;;;;;;;5013499;28;20237;-68
2023/04/10 04:53:54;;;;;;;13.50;10.63;;;;;;;;;;4995654;28;20191;-69
2023/04/10 04:56:20;;;;;;;16.57;10.87;;;;;;;;;;5013191;28;20203;-68
2023/04/10 04:58:46;;;;;;;12.93;10.50;;;;;;;;;;5013370;28;20261;-69
2023/04/10 05:01:12;;;;;;;16.20;11.20;;;;;;;;;;4995592;28;20176;-69
2023/04/10 05:03:38;;;;;;;15.63;11.13;;;;;;;;;;4995690;28;20191;-69
2023/04/10 05:06:04;;;;;;;15.97;11.53;;;;;;;;;;4995469;28;20184;-68
2023/04/10 05:08:30;;;;;;;16.00;11.90;;;;;;;;;;4995426;28;20290;-69
2023/04/10 05:10:56;;;;;;;14.37;10.47;;;;;;;;;;5013088;28;20208;-70
2023/04/10 05:13:22;;;;;;;16.47;11.40;;;;;;;;;;4995537;28;20240;-68
2023/04/10 05:15:48;;;;;;;16.80;12.20;;;;;;;;;;5013450;28;20211;-69
2023/04/10 05:18:18;;;;;;;15.67;10.77;;;;;;;;;;5013142;28;20199;-69
2023/04/10 05:20:44;;;;;;;13.97;10.53;;;;;;;;;;5012996;28;20250;-69
2023/04/10 05:23:10;;;;;;;13.97;10.40;;;;;;;;;;4995164;28;20190;-69
2023/04/10 05:25:36;;;;;;;14.27;10.80;;;;;;;;;;4995447;28;20180;-69
2023/04/10 05:28:02;;;;;;;13.40;9.53;;;;;;;;;;5012725;28;20196;-69
2023/04/10 05:30:28;;;;;;;14.73;9.83;;;;;;;;;;5016047;28;20650;-69
2023/04/10 05:32:54;;;;;;;11.27;9.50;;;;;;;;;;5016621;28;20180;-69
2023/04/10 05:35:20;;;;;;;12.27;9.93;;;;;;;;;;5016709;28;20627;-69
2023/04/10 05:37:46;;;;;;;10.03;8.53;;;;;;;;;;4998636;28;20219;-69
2023/04/10 05:40:12;;;;;;;12.03;9.53;;;;;;;;;;5016800;28;20551;-69
2023/04/10 05:42:38;;;;;;;10.23;8.80;;;;;;;;;;4998870;28;20184;-68
2023/04/10 05:45:04;;;;;;;11.30;8.73;;;;;;;;;;4999205;28;20190;-69
2023/04/10 05:47:30;;;;;;;10.90;8.57;;;;;;;;;;5016636;28;20278;-68
2023/04/10 05:49:56;;;;;;;12.33;8.07;;;;;;;;;;4998941;28;20202;-68
2023/04/10 05:52:22;;;;;;;8.83;7.93;;;;;;;;;;5016759;28;20180;-69
2023/04/10 05:54:48;;;;;;;10.13;8.77;;;;;;;;;;4998791;28;20590;-69
2023/04/10 05:57:14;;;;;;;8.43;7.53;;;;;;;;;;4998487;28;20751;-69
2023/04/10 05:59:40;;;;;;;9.20;8.30;;;;;;;;;;4998630;28;20267;-69
2023/04/10 06:02:06;;;;;;;9.60;8.13;;;;;;;;;;5016364;28;20262;-69
2023/04/10 06:04:32;;;;;;;8.77;7.87;;;;;;;;;;4998721;28;20172;-70
2023/04/10 06:06:58;;;;;;;10.33;7.77;;;;;;;;;;5016183;28;21066;-70
2023/04/10 06:09:24;;;;;;;9.80;7.97;;;;;;;;;;5016218;28;20230;-70
2023/04/10 06:11:50;;;;;;;8.83;7.93;;;;;;;;;;4998174;28;20650;-70
2023/04/10 06:14:17;;;;;;;13.27;10.93;;;;;;;;;;4998468;28;20183;-71
2023/04/10 06:16:43;;;;;;;9.80;8.80;;;;;;;;;;4998108;28;20215;-69
2023/04/10 06:19:09;;;;;;;10.63;9.33;;;;;;;;;;5015881;28;20180;-71
2023/04/10 06:21:35;;;;;;;9.57;8.27;;;;;;;;;;5015843;28;20230;-71
2023/04/10 06:24:01;;;;;;;9.70;8.70;;;;;;;;;;5015693;28;20200;-71
2023/04/10 06:26:27;;;;;;;9.53;8.00;;;;;;;;;;5015834;28;20642;-70
2023/04/10 06:28:53;;;;;;;9.67;8.67;;;;;;;;;;5015853;28;20184;-70
2023/04/10 06:31:20;;;;;;;9.07;7.73;;;;;;;;;;4997961;28;20753;-70
2023/04/10 06:33:47;;;;;;;13.87;8.10;;;;;;;;;;4997897;28;20194;-70
2023/04/10 06:36:13;;;;;;;8.63;7.73;;;;;;;;;;4997680;28;20223;-70
2023/04/10 06:38:39;;;;;;;8.47;7.57;;;;;;;;;;4997788;28;20191;-70
2023/04/10 06:41:05;;;;;;;9.03;8.13;;;;;;;;;;5015388;28;20311;-70
2023/04/10 06:43:33;;;;;;;8.67;7.87;;;;;;;;;;5015371;28;20183;-70
2023/04/10 06:45:59;;;;;;;9.67;8.00;;;;;;;;;;5015785;28;20182;-70
2023/04/10 06:48:25;;;;;;;8.37;7.57;;;;;;;;;;4997419;28;20208;-71
2023/04/10 06:50:51;;;;;;;9.17;8.27;;;;;;;;;;4997857;28;20619;-71
2023/04/10 06:53:17;;;;;;;8.67;7.67;;;;;;;;;;4997517;28;20533;-70
2023/04/10 06:55:43;;;;;;;9.07;7.40;;;;;;;;;;5015110;28;20207;-70
2023/04/10 06:58:09;;;;;;;9.37;7.67;;;;;;;;;;5014971;28;20196;-69
2023/04/10 07:00:35;;;;;;;8.70;7.80;;;;;;;;;;5015082;28;20183;-69
2023/04/10 07:03:01;;;;;;;8.67;7.80;;;;;;;;;;5014812;28;20203;-70
2023/04/10 07:05:27;;;;;;;7.73;7.03;;;;;;;;;;4997138;28;20180;-70
2023/04/10 07:07:53;;;;;;;7.90;7.10;;;;;;;;;;4997358;28;20250;-69
2023/04/10 07:10:19;;;;;;;8.50;7.60;;;;;;;;;;4997742;28;20536;-70
2023/04/10 07:12:45;;;;;;;8.07;7.27;;;;;;;;;;4997085;28;20673;-70
2023/04/10 07:15:11;;;;;;;6.70;6.00;;;;;;;;;;5014848;28;20180;-70
2023/04/10 07:17:37;;;;;;;14.33;6.50;;;;;;;;;;4996837;28;20804;-70
2023/04/10 07:20:04;;;;;;;7.30;6.67;;;;;;;;;;5015156;28;20255;-70
2023/04/10 07:22:30;;;;;;;9.63;6.93;;;;;;;;;;5014551;28;20180;-70
2023/04/10 07:27:27;;;;;;;6.97;6.27;;;;;;;;;;5034640;28;20215;-69
2023/04/10 07:29:55;;;;;;;7.27;6.57;;;;;;;;;;5035441;28;20179;-69
2023/04/10 07:32:22;;;;;;;7.70;6.90;;;;;;;;;;5035083;28;20534;-69
2023/04/10 07:34:48;;;;;;;7.17;6.47;;;;;;;;;;5034196;28;20646;-69
2023/04/10 07:37:15;;;;;;;8.00;6.90;;;;;;;;;;5016978;28;20306;-69
2023/04/10 07:39:41;;;;;;;7.50;6.70;;;;;;;;;;5034561;28;20241;-69
2023/04/10 07:42:07;;;;;;;7.97;7.17;;;;;;;;;;5034342;28;20175;-68
2023/04/10 07:44:33;;;;;;;8.60;7.70;;;;;;;;;;5034539;28;20583;-69
2023/04/10 07:46:59;;;;;;;7.27;6.53;;;;;;;;;;5033986;28;20301;-68
2023/04/10 07:49:25;;;;;;;8.87;7.30;;;;;;;;;;5016137;28;20187;-69
2023/04/10 07:51:51;;;;;;;8.53;7.20;;;;;;;;;;5033757;28;20668;-70
2023/04/10 07:54:17;;;;;;;8.23;7.43;;;;;;;;;;5016407;28;20184;-69
2023/04/10 07:56:43;;;;;;;7.33;6.63;;;;;;;;;;5033915;28;20206;-69
2023/04/10 07:59:09;;;;;;;7.43;6.73;;;;;;;;;;5033765;28;20180;-69
2023/04/10 08:01:35;;;;;;;7.73;6.97;;;;;;;;;;5033691;28;20225;-69
2023/04/10 08:04:02;;;;;;;8.27;6.00;;;;;;;;;;5033847;28;20175;-69
2023/04/10 08:06:28;;;;;;;19.90;14.13;;;;;;;;;;5016215;28;20202;-69
2023/04/10 08:08:54;;;;;;;21.87;14.87;;;;;;;;;;5033937;28;20194;-68
2023/04/10 08:11:24;;;;;;;13.90;9.70;;;;;;;;;;5016141;28;20179;-69
2023/04/10 08:13:50;;;;;;;9.27;8.23;;;;;;;;;;5033612;28;20183;-69
2023/04/10 08:16:18;;;;;;;14.10;10.90;;;;;;;;;;5033754;28;20230;-69
2023/04/10 08:18:44;;;;;;;9.83;8.17;;;;;;;;;;5015722;28;20179;-68
2023/04/10 08:21:10;;;;;;;7.17;6.50;;;;;;;;;;5033663;28;20576;-69
2023/04/10 08:23:36;;;;;;;8.93;8.03;;;;;;;;;;5016075;28;20209;-70
2023/04/10 08:26:03;;;;;;;10.73;7.97;;;;;;;;;;5033618;28;20219;-70
2023/04/10 08:28:31;;;;;;;11.47;8.93;;;;;;;;;;5033618;28;20175;-72
2023/04/10 08:30:57;;;;;;;9.50;8.20;;;;;;;;;;5033630;28;20226;-68
2023/04/10 08:33:23;;;;;;;8.10;7.30;;;;;;;;;;5033699;28;20186;-67
2023/04/10 08:35:49;;;;;;;9.93;7.43;;;;;;;;;;5033235;28;20207;-68
2023/04/10 08:38:15;;;;;;;7.97;6.17;;;;;;;;;;5033262;28;20181;-69
2023/04/10 08:40:43;;;;;;;6.70;5.93;;;;;;;;;;5033626;28;20236;-69
2023/04/10 08:43:09;;;;;;;6.93;6.13;;;;;;;;;;5033215;28;20172;-69
2023/04/10 08:45:35;;;;;;;6.70;6.00;;;;;;;;;;5015419;28;20231;-69
2023/04/10 08:48:02;;;;;;;7.83;6.40;;;;;;;;;;5033321;28;20245;-69
2023/04/10 08:50:30;;;;;;;6.07;5.00;;;;;;;;;;5033997;28;20262;-69
2023/04/10 08:52:59;;;;;;;8.27;6.50;;;;;;;;;;5033976;28;20262;-69
2023/04/10 08:55:25;;;;;;;10.13;7.03;;;;;;;;;;5034323;28;20199;-69
2023/04/10 08:57:52;;;;;;;7.50;6.60;;;;;;;;;;5015657;28;20182;-67
2023/04/10 09:00:18;;;;;;;6.43;5.83;;;;;;;;;;5034362;28;20222;-67
2023/04/10 09:02:44;;;;;;;6.53;5.83;;;;;;;;;;5033207;28;20556;-68
2023/04/10 09:05:14;;;;;;;7.40;6.70;;;;;;;;;;5035668;28;20226;-68
2023/04/10 09:07:40;;;;;;;5.70;5.20;;;;;;;;;;5019226;28;20653;-68
2023/04/10 09:10:07;;;;;;;6.00;4.90;;;;;;;;;;5019468;28;20187;-68
2023/04/10 09:12:43;;;;;;;6.87;6.03;;;;;;;;;;5037432;28;20181;-68
2023/04/10 09:15:10;;;;;;;6.40;5.80;;;;;;;;;;5037020;28;20159;-67
2023/04/10 09:17:35;;;;;;;5.77;5.17;;;;;;;;;;5036845;28;20202;-68
2023/04/10 09:20:01;;;;;;;5.43;4.93;;;;;;;;;;5037368;28;20187;-68
2023/04/10 09:22:32;;;;;;;7.90;6.17;;;;;;;;;;5018912;28;20186;-68
2023/04/10 09:24:58;;;;;;;6.90;6.00;;;;;;;;;;5018805;28;20175;-68
2023/04/10 09:27:32;;;;;;;7.53;6.07;;;;;;;;;;5018757;28;20214;-68
2023/04/10 09:29:58;;;;;;;7.00;5.67;;;;;;;;;;5036602;28;20203;-68
2023/04/10 09:32:38;;;;;;;5.90;5.30;;;;;;;;;;5018959;28;20672;-68
2023/04/10 09:35:04;;;;;;;7.20;5.10;;;;;;;;;;5018867;28;20652;-68
2023/04/10 09:37:33;;;;;;;6.97;5.60;;;;;;;;;;5036440;28;20596;-68
2023/04/10 09:39:59;;;;;;;9.57;5.90;;;;;;;;;;5036325;28;20590;-68
2023/04/10 09:42:30;;;;;;;8.60;5.63;;;;;;;;;;5036590;28;20175;-68
2023/04/10 09:44:56;;;;;;;7.83;5.73;;;;;;;;;;5019309;28;20183;-67
2023/04/10 09:47:22;;;;;;;5.90;5.30;;;;;;;;;;5037438;28;20191;-69
2023/04/10 09:49:48;;;;;;;6.10;5.20;;;;;;;;;;5036674;28;20176;-68
2023/04/10 09:52:33;;;;;;;5.90;5.27;;;;;;;;;;5018684;28;20206;-69
2023/04/10 09:55:01;;;;;;;9.10;6.20;;;;;;;;;;5018730;28;20172;-70
2023/04/10 09:57:28;;;;;;;8.10;5.43;;;;;;;;;;5018683;28;20677;-69
2023/04/10 09:59:55;;;;;;;5.80;5.17;;;;;;;;;;5036568;28;20179;-69
2023/04/10 10:02:22;;;;;;;5.60;4.90;;;;;;;;;;5018350;28;20183;-68
2023/04/10 10:04:49;;;;;;;7.43;5.20;;;;;;;;;;5018417;28;20551;-68
2023/04/10 10:07:15;;;;;;;6.33;5.73;;;;;;;;;;5018508;28;20294;-69
2023/04/10 10:09:42;;;;;;;9.27;7.00;;;;;;;;;;5018488;28;20183;-68
2023/04/10 10:12:09;;;;;;;6.33;5.40;;;;;;;;;;5036515;28;20262;-68
2023/04/10 10:14:38;;;;;;;8.20;5.90;;;;;;;;;;5019220;28;20285;-69
2023/04/10 10:17:09;;;;;;;5.10;4.60;;;;;;;;;;5041832;28;20214;-68
2023/04/10 10:19:42;;;;;;;6.23;4.90;;;;;;;;;;5045845;28;20155;-70
2023/04/10 10:22:09;;;;;;;6.37;4.87;;;;;;;;;;5051827;28;20186;-69
2023/04/10 10:24:37;;;;;;;7.83;5.77;;;;;;;;;;5029035;28;20179;-68
2023/04/10 10:27:04;;;;;;;6.30;4.97;;;;;;;;;;5036977;28;20301;-69
2023/04/10 10:29:31;;;;;;;5.13;4.67;;;;;;;;;;5037697;28;20183;-68
2023/04/10 10:32:01;;;;;;;5.10;4.60;;;;;;;;;;5036394;28;20274;-70
2023/04/10 10:34:28;;;;;;;6.87;5.13;;;;;;;;;;5019097;28;20180;-70
2023/04/10 10:36:54;;;;;;;5.13;4.63;;;;;;;;;;5036428;28;20199;-71
2023/04/10 10:39:38;;;;;;;6.87;4.93;;;;;;;;;;5036100;28;20175;-69
2023/04/10 10:42:07;;;;;;;5.73;4.97;;;;;;;;;;5017722;28;20170;-69
2023/04/10 10:44:34;;;;;;;6.20;4.47;;;;;;;;;;5035658;28;20190;-71
2023/04/10 10:47:07;;;;;;;5.20;4.37;;;;;;;;;;5035977;28;20194;-70
2023/04/10 10:49:52;;;;;;;4.40;4.00;;;;;;;;;;5035497;28;20644;-70
2023/04/10 10:52:51;;;;;;;4.70;4.30;;;;;;;;;;5035928;28;20590;-70
2023/04/10 10:55:23;;;;;;;5.17;4.67;;;;;;;;;;5020851;28;20211;-70
2023/04/10 10:57:52;;;;;;;4.97;4.43;;;;;;;;;;5035360;28;20609;-70
2023/04/10 11:00:19;;;;;;;5.17;4.43;;;;;;;;;;5035284;28;20656;-70
2023/04/10 11:02:45;;;;;;;5.03;4.10;;;;;;;;;;5035407;28;20661;-70
2023/04/10 11:05:31;;;;;;;7.10;4.53;;;;;;;;;;5035158;28;20199;-70
2023/04/10 11:08:00;;;;;;;5.03;4.63;;;;;;;;;;5035094;28;20225;-70
2023/04/10 11:10:45;;;;;;;4.77;4.33;;;;;;;;;;5035200;28;20171;-70
2023/04/10 11:13:15;;;;;;;5.03;4.30;;;;;;;;;;5035631;28;20248;-70
2023/04/10 11:15:41;;;;;;;4.57;4.17;;;;;;;;;;5017780;28;20250;-70
2023/04/10 11:18:07;;;;;;;6.13;4.23;;;;;;;;;;5017249;28;20175;-70
2023/04/10 11:20:54;;;;;;;4.50;4.10;;;;;;;;;;5017462;28;20182;-70
2023/04/10 11:23:20;;;;;;;7.17;6.27;;;;;;;;;;5035046;28;20197;-70
2023/04/10 11:25:47;;;;;;;4.47;3.80;;;;;;;;;;5035458;28;20684;-69
2023/04/10 11:28:32;;;;;;;5.17;4.43;;;;;;;;;;5016966;28;20179;-70
2023/04/10 11:31:14;;;;;;;8.10;4.67;;;;;;;;;;5035747;28;20265;-69
2023/04/10 11:33:40;;;;;;;4.30;3.90;;;;;;;;;;5034979;28;20178;-69
2023/04/10 11:36:07;;;;;;;5.80;4.60;;;;;;;;;;5035166;28;20211;-69
2023/04/10 11:38:33;;;;;;;5.20;4.13;;;;;;;;;;5034969;28;20209;-69
2023/04/10 11:41:01;;;;;;;4.60;4.20;;;;;;;;;;5035058;28;20306;-69
2023/04/10 11:43:27;;;;;;;4.63;4.23;;;;;;;;;;5034559;28;20536;-69
2023/04/10 11:46:00;;;;;;;5.30;4.80;;;;;;;;;;5016758;28;20202;-69
2023/04/10 11:48:28;;;;;;;4.17;3.83;;;;;;;;;;5034360;28;20237;-69
2023/04/10 11:50:54;;;;;;;5.50;4.70;;;;;;;;;;5017172;28;20237;-69
2023/04/10 11:53:20;;;;;;;9.37;5.30;;;;;;;;;;5034858;28;20179;-69
2023/04/10 11:55:46;;;;;;;5.00;4.50;;;;;;;;;;5016761;28;20207;-70
2023/04/10 11:58:22;;;;;;;6.27;5.07;;;;;;;;;;5035634;28;20222;-69
2023/04/10 12:01:04;;;;;;;9.03;5.60;;;;;;;;;;5035477;28;20179;-70
2023/04/10 12:03:31;;;;;;;7.60;6.80;;;;;;;;;;5034478;28;20197;-70
2023/04/10 12:05:57;;;;;;;5.40;4.33;;;;;;;;;;5034281;28;20278;-70
2023/04/10 12:08:30;;;;;;;7.13;5.33;;;;;;;;;;5034353;28;20669;-69
2023/04/10 12:10:56;;;;;;;4.57;4.17;;;;;;;;;;5034455;28;20233;-69
2023/04/10 12:13:25;;;;;;;5.80;4.50;;;;;;;;;;5016504;28;20187;-70
2023/04/10 12:15:52;;;;;;;6.50;4.93;;;;;;;;;;5033743;28;20211;-70
2023/04/10 12:18:18;;;;;;;4.87;4.37;;;;;;;;;;5034144;28;20324;-70
2023/04/10 12:20:44;;;;;;;5.47;4.70;;;;;;;;;;5033910;28;20669;-70
2023/04/10 12:23:10;;;;;;;5.93;5.10;;;;;;;;;;5033926;28;20207;-70
2023/04/10 12:25:36;;;;;;;3.93;3.63;;;;;;;;;;5016045;28;20221;-70
2023/04/10 12:28:02;;;;;;;4.67;4.27;;;;;;;;;;5033943;28;20164;-70
2023/04/10 12:30:28;;;;;;;5.30;3.83;;;;;;;;;;5034039;28;20214;-69
2023/04/10 12:32:55;;;;;;;5.33;4.83;;;;;;;;;;5034439;28;20218;-70
2023/04/10 12:35:36;;;;;;;4.17;3.80;;;;;;;;;;5034140;28;20199;-70
2023/04/10 12:38:02;;;;;;;6.37;3.93;;;;;;;;;;5035190;28;20195;-70
2023/04/10 12:40:28;;;;;;;6.47;5.50;;;;;;;;;;5023063;28;20672;-70
2023/04/10 12:42:55;;;;;;;5.53;3.80;;;;;;;;;;5040865;28;20178;-69
2023/04/10 12:45:21;;;;;;;5.40;4.30;;;;;;;;;;5022924;28;20203;-69
2023/04/10 12:47:48;;;;;;;4.73;4.23;;;;;;;;;;5022256;28;20182;-69
2023/04/10 12:50:15;;;;;;;7.90;4.97;;;;;;;;;;5041013;28;20175;-69
2023/04/10 12:52:44;;;;;;;4.10;3.70;;;;;;;;;;5022371;28;20592;-68
2023/04/10 12:55:10;;;;;;;4.60;4.20;;;;;;;;;;5040402;28;20762;-69
2023/04/10 12:57:37;;;;;;;4.00;3.60;;;;;;;;;;5040087;28;20574;-70
2023/04/10 13:00:03;;;;;;;6.33;5.20;;;;;;;;;;5040315;28;20175;-70
2023/04/10 13:02:30;;;;;;;5.97;4.60;;;;;;;;;;5039985;28;20179;-70
2023/04/10 13:04:55;;;;;;;5.67;4.30;;;;;;;;;;5039980;28;20310;-70
2023/04/10 13:07:21;;;;;;;6.03;4.57;;;;;;;;;;5022126;28;20282;-70
2023/04/10 13:09:47;;;;;;;6.60;5.93;;;;;;;;;;5039851;28;20183;-70
2023/04/10 13:12:14;;;;;;;9.87;6.73;;;;;;;;;;5040064;28;20185;-70
2023/04/10 13:14:40;;;;;;;7.90;6.10;;;;;;;;;;5040210;28;20179;-70
2023/04/10 13:17:06;;;;;;;6.93;6.00;;;;;;;;;;5039549;28;20236;-70
2023/04/10 13:19:32;;;;;;;8.37;5.73;;;;;;;;;;5040005;28;20186;-70
2023/04/10 13:22:00;;;;;;;10.17;8.57;;;;;;;;;;5039711;28;20175;-71
2023/04/10 13:24:26;;;;;;;6.97;5.33;;;;;;;;;;5023160;28;20183;-70
2023/04/10 13:26:52;;;;;;;5.50;4.93;;;;;;;;;;5022191;28;20215;-70
2023/04/10 13:29:18;;;;;;;7.77;4.80;;;;;;;;;;5025380;28;20191;-70
2023/04/10 13:31:43;;;;;;;6.37;5.60;;;;;;;;;;5049459;28;20175;-70
2023/04/10 13:34:10;;;;;;;21.87;17.43;;;;;;;;;;5034506;28;20183;-70
2023/04/10 13:36:36;;;;;;;6.27;4.93;;;;;;;;;;5028830;28;20215;-70
2023/04/10 13:39:02;;;;;;;7.87;6.73;;;;;;;;;;5024935;28;20258;-70
2023/04/10 13:41:28;;;;;;;7.00;5.37;;;;;;;;;;5042288;28;20206;-70
2023/04/10 13:43:54;;;;;;;5.00;4.47;;;;;;;;;;5022069;28;20545;-70
2023/04/10 13:46:20;;;;;;;7.43;4.37;;;;;;;;;;5022022;28;20269;-70
2023/04/10 13:48:46;;;;;;;5.33;4.77;;;;;;;;;;5040274;28;20245;-70
2023/04/10 13:51:12;;;;;;;4.83;4.37;;;;;;;;;;5036515;28;20528;-70
2023/04/10 13:53:38;;;;;;;5.27;4.13;;;;;;;;;;5036328;28;20623;-70
2023/04/10 13:56:04;;;;;;;6.47;5.43;;;;;;;;;;5036283;28;20298;-70
2023/04/10 13:58:33;;;;;;;6.17;5.30;;;;;;;;;;5036614;28;20175;-70
2023/04/10 14:00:59;;;;;;;9.17;6.03;;;;;;;;;;5053548;23;20302;-67
2023/04/10 14:03:26;;;;;;;6.23;5.63;;;;;;;;;;5018940;28;20715;-66
2023/04/10 14:05:52;;;;;;;3.80;3.37;;;;;;;;;;5016839;28;20258;-67
2023/04/10 14:08:18;;;;;;;3.17;2.97;;;;;;;;;;5016135;28;20339;-66
2023/04/10 14:10:49;;;;;;;3.50;2.60;;;;;;;;;;5016776;28;20215;-66
2023/04/10 14:13:15;;;;;;;3.10;2.90;;;;;;;;;;5016928;28;20188;-67
2023/04/10 14:15:41;;;;;;;2.90;2.60;;;;;;;;;;5016589;28;20562;-68
2023/04/10 14:18:07;;;;;;;4.60;3.53;;;;;;;;;;5016733;28;20180;-67
2023/04/10 14:20:33;;;;;;;2.90;2.70;;;;;;;;;;5017227;28;20569;-66
2023/04/10 14:22:59;;;;;;;2.97;2.77;;;;;;;;;;4999926;28;20207;-66
2023/04/10 14:25:25;;;;;;;3.10;2.80;;;;;;;;;;5019555;28;20211;-66
2023/04/10 14:27:51;;;;;;;2.87;2.67;;;;;;;;;;5019427;28;20176;-66
2023/04/10 14:30:17;;;;;;;3.00;2.80;;;;;;;;;;5018256;28;20215;-66
2023/04/10 14:32:43;;;;;;;3.03;2.83;;;;;;;;;;5015992;28;20554;-65
2023/04/10 14:35:10;;;;;;;2.87;2.60;;;;;;;;;;4998705;28;20188;-65
2023/04/10 14:37:35;;;;;;;2.90;2.70;;;;;;;;;;4998247;28;20594;-65
2023/04/10 14:40:03;;;;;;;3.70;2.70;;;;;;;;;;5016287;28;20184;-64